Terminal Aerodrome Forecast
Issued by NWS Burlington, VT

Home | Current Version | Previous Version | Text Only | Print | Product List | Glossary On
Versions: 1 2 3 4 5 6 7 8 9 10 11 12 13 14 15
896
FTUS41 KBTV 050520
TAFBTV
TAF
KBTV 050520Z 0506/0606 14004KT P6SM OVC150
     FM051100 15005KT 2SM -SN BR SCT025 OVC035
     FM051300 15009KT 1SM -SN BR OVC025
     FM051700 17007KT 4SM -SN BR OVC015
     FM052100 23004KT P6SM OVC015
     FM052300 28004KT P6SM OVC010=

USA.gov is the U.S. government's official web portal to all federal, state and local government web resources and services.